sensor_id;sensor_type;location;lat;lon;timestamp;temperature;humidity
68128;SHT30;54931;52.098;21.006;2024-02-04T00:01:03;7.16;74.27
68128;SHT30;54931;52.098;21.006;2024-02-04T00:03:52;7.13;74.04
68128;SHT30;54931;52.098;21.006;2024-02-04T00:06:20;7.11;73.70
68128;SHT30;54931;52.098;21.006;2024-02-04T00:08:48;7.10;73.69
68128;SHT30;54931;52.098;21.006;2024-02-04T00:11:15;7.05;73.85
68128;SHT30;54931;52.098;21.006;2024-02-04T00:13:44;6.97;73.85
68128;SHT30;54931;52.098;21.006;2024-02-04T00:16:11;6.95;73.57
68128;SHT30;54931;52.098;21.006;2024-02-04T00:18:39;6.97;73.61
68128;SHT30;54931;52.098;21.006;2024-02-04T00:21:07;6.96;73.63
68128;SHT30;54931;52.098;21.006;2024-02-04T00:23:34;6.96;73.74
68128;SHT30;54931;52.098;21.006;2024-02-04T00:26:02;6.95;73.63
68128;SHT30;54931;52.098;21.006;2024-02-04T00:28:29;6.99;73.65
68128;SHT30;54931;52.098;21.006;2024-02-04T00:30:57;6.98;73.74
68128;SHT30;54931;52.098;21.006;2024-02-04T00:33:26;6.94;73.89
68128;SHT30;54931;52.098;21.006;2024-02-04T00:35:53;6.87;74.15
68128;SHT30;54931;52.098;21.006;2024-02-04T00:38:21;6.80;74.51
68128;SHT30;54931;52.098;21.006;2024-02-04T00:40:48;6.76;74.86
68128;SHT30;54931;52.098;21.006;2024-02-04T00:43:19;6.72;75.42
68128;SHT30;54931;52.098;21.006;2024-02-04T00:45:46;6.65;75.82
68128;SHT30;54931;52.098;21.006;2024-02-04T00:48:13;6.64;76.38
68128;SHT30;54931;52.098;21.006;2024-02-04T00:50:41;6.67;76.28
68128;SHT30;54931;52.098;21.006;2024-02-04T00:53:08;6.62;76.38
68128;SHT30;54931;52.098;21.006;2024-02-04T00:55:36;6.63;76.58
68128;SHT30;54931;52.098;21.006;2024-02-04T00:58:03;6.62;76.57
68128;SHT30;54931;52.098;21.006;2024-02-04T01:00:32;6.60;76.91
68128;SHT30;54931;52.098;21.006;2024-02-04T01:02:59;6.56;77.20
68128;SHT30;54931;52.098;21.006;2024-02-04T01:05:27;6.57;77.45
68128;SHT30;54931;52.098;21.006;2024-02-04T01:07:54;6.58;77.54
68128;SHT30;54931;52.098;21.006;2024-02-04T01:10:22;6.56;77.67
68128;SHT30;54931;52.098;21.006;2024-02-04T01:12:49;6.54;77.87
68128;SHT30;54931;52.098;21.006;2024-02-04T01:15:17;6.51;78.07
68128;SHT30;54931;52.098;21.006;2024-02-04T01:17:45;6.47;78.26
68128;SHT30;54931;52.098;21.006;2024-02-04T01:20:12;6.43;78.46
68128;SHT30;54931;52.098;21.006;2024-02-04T01:22:40;6.38;78.75
68128;SHT30;54931;52.098;21.006;2024-02-04T01:25:07;6.32;79.09
68128;SHT30;54931;52.098;21.006;2024-02-04T01:27:35;6.32;79.37
68128;SHT30;54931;52.098;21.006;2024-02-04T01:30:03;6.34;79.21
68128;SHT30;54931;52.098;21.006;2024-02-04T01:32:32;6.36;79.26
68128;SHT30;54931;52.098;21.006;2024-02-04T01:34:59;6.36;79.21
68128;SHT30;54931;52.098;21.006;2024-02-04T01:37:27;6.36;79.46
68128;SHT30;54931;52.098;21.006;2024-02-04T01:39:54;6.38;79.54
68128;SHT30;54931;52.098;21.006;2024-02-04T01:42:22;6.44;79.49
68128;SHT30;54931;52.098;21.006;2024-02-04T01:44:50;6.49;79.33
68128;SHT30;54931;52.098;21.006;2024-02-04T01:47:18;6.51;79.32
68128;SHT30;54931;52.098;21.006;2024-02-04T01:49:47;6.53;79.21
68128;SHT30;54931;52.098;21.006;2024-02-04T01:52:15;6.53;79.17
68128;SHT30;54931;52.098;21.006;2024-02-04T01:54:44;6.54;79.17
68128;SHT30;54931;52.098;21.006;2024-02-04T01:57:12;6.55;79.10
68128;SHT30;54931;52.098;21.006;2024-02-04T01:59:40;6.58;78.97
68128;SHT30;54931;52.098;21.006;2024-02-04T02:02:08;6.61;78.81
68128;SHT30;54931;52.098;21.006;2024-02-04T02:04:36;6.61;78.77
68128;SHT30;54931;52.098;21.006;2024-02-04T02:07:05;6.62;78.66
68128;SHT30;54931;52.098;21.006;2024-02-04T02:09:34;6.63;78.59
68128;SHT30;54931;52.098;21.006;2024-02-04T02:12:12;6.64;78.43
68128;SHT30;54931;52.098;21.006;2024-02-04T02:14:48;6.68;78.25
68128;SHT30;54931;52.098;21.006;2024-02-04T02:17:28;6.70;78.19
68128;SHT30;54931;52.098;21.006;2024-02-04T02:20:07;6.71;78.14
68128;SHT30;54931;52.098;21.006;2024-02-04T02:22:49;6.72;77.99
68128;SHT30;54931;52.098;21.006;2024-02-04T02:25:27;6.74;77.68
68128;SHT30;54931;52.098;21.006;2024-02-04T02:27:58;6.77;77.49
68128;SHT30;54931;52.098;21.006;2024-02-04T02:30:25;6.79;77.42
68128;SHT30;54931;52.098;21.006;2024-02-04T02:32:52;6.80;77.37
68128;SHT30;54931;52.098;21.006;2024-02-04T02:35:20;6.78;77.31
68128;SHT30;54931;52.098;21.006;2024-02-04T02:38:10;6.79;77.16
68128;SHT30;54931;52.098;21.006;2024-02-04T02:40:58;6.81;76.91
68128;SHT30;54931;52.098;21.006;2024-02-04T02:43:31;6.83;76.70
68128;SHT30;54931;52.098;21.006;2024-02-04T02:46:01;6.85;76.68
68128;SHT30;54931;52.098;21.006;2024-02-04T02:48:29;6.83;76.59
68128;SHT30;54931;52.098;21.006;2024-02-04T02:50:57;6.83;76.61
68128;SHT30;54931;52.098;21.006;2024-02-04T02:53:25;6.78;76.47
68128;SHT30;54931;52.098;21.006;2024-02-04T02:55:52;6.80;76.37
68128;SHT30;54931;52.098;21.006;2024-02-04T02:58:20;6.80;76.34
68128;SHT30;54931;52.098;21.006;2024-02-04T03:00:48;6.78;76.24
68128;SHT30;54931;52.098;21.006;2024-02-04T03:03:15;6.78;76.10
68128;SHT30;54931;52.098;21.006;2024-02-04T03:05:43;6.78;75.96
68128;SHT30;54931;52.098;21.006;2024-02-04T03:08:11;6.80;75.73
68128;SHT30;54931;52.098;21.006;2024-02-04T03:10:38;6.83;75.62
68128;SHT30;54931;52.098;21.006;2024-02-04T03:13:06;6.84;75.66
68128;SHT30;54931;52.098;21.006;2024-02-04T03:15:33;6.82;75.76
68128;SHT30;54931;52.098;21.006;2024-02-04T03:18:01;6.82;75.81
68128;SHT30;54931;52.098;21.006;2024-02-04T03:20:29;6.81;75.91
68128;SHT30;54931;52.098;21.006;2024-02-04T03:22:57;6.80;75.95
68128;SHT30;54931;52.098;21.006;2024-02-04T03:25:24;6.79;75.92
68128;SHT30;54931;52.098;21.006;2024-02-04T03:27:53;6.81;75.83
68128;SHT30;54931;52.098;21.006;2024-02-04T03:30:21;6.82;75.65
68128;SHT30;54931;52.098;21.006;2024-02-04T03:32:48;6.82;75.50
68128;SHT30;54931;52.098;21.006;2024-02-04T03:35:16;6.82;75.33
68128;SHT30;54931;52.098;21.006;2024-02-04T03:37:43;6.83;75.24
68128;SHT30;54931;52.098;21.006;2024-02-04T03:40:11;6.81;74.81
68128;SHT30;54931;52.098;21.006;2024-02-04T03:42:39;6.81;74.57
68128;SHT30;54931;52.098;21.006;2024-02-04T03:45:08;6.81;74.50
68128;SHT30;54931;52.098;21.006;2024-02-04T03:47:36;6.84;74.49
68128;SHT30;54931;52.098;21.006;2024-02-04T03:50:04;6.80;74.32
68128;SHT30;54931;52.098;21.006;2024-02-04T03:52:32;6.83;74.09
68128;SHT30;54931;52.098;21.006;2024-02-04T03:55:00;6.83;74.09
68128;SHT30;54931;52.098;21.006;2024-02-04T03:57:28;6.81;74.01
68128;SHT30;54931;52.098;21.006;2024-02-04T03:59:55;6.79;73.97
68128;SHT30;54931;52.098;21.006;2024-02-04T04:02:23;6.78;73.89
68128;SHT30;54931;52.098;21.006;2024-02-04T04:05:10;6.73;73.77
68128;SHT30;54931;52.098;21.006;2024-02-04T04:07:59;6.73;73.26
68128;SHT30;54931;52.098;21.006;2024-02-04T04:10:26;6.75;73.31
68128;SHT30;54931;52.098;21.006;2024-02-04T04:12:54;6.71;73.20
68128;SHT30;54931;52.098;21.006;2024-02-04T04:15:21;6.73;73.15
68128;SHT30;54931;52.098;21.006;2024-02-04T04:17:49;6.71;72.85
68128;SHT30;54931;52.098;21.006;2024-02-04T04:20:17;6.72;72.69
68128;SHT30;54931;52.098;21.006;2024-02-04T04:22:44;6.75;72.51
68128;SHT30;54931;52.098;21.006;2024-02-04T04:25:12;6.72;72.21
68128;SHT30;54931;52.098;21.006;2024-02-04T04:27:41;6.72;72.02
68128;SHT30;54931;52.098;21.006;2024-02-04T04:30:09;6.75;72.03
68128;SHT30;54931;52.098;21.006;2024-02-04T04:32:37;6.72;72.22
68128;SHT30;54931;52.098;21.006;2024-02-04T04:35:05;6.72;72.62
68128;SHT30;54931;52.098;21.006;2024-02-04T04:37:34;6.68;72.73
68128;SHT30;54931;52.098;21.006;2024-02-04T04:40:01;6.62;72.41
68128;SHT30;54931;52.098;21.006;2024-02-04T04:42:29;6.36;72.78
68128;SHT30;54931;52.098;21.006;2024-02-04T04:44:57;5.76;74.76
68128;SHT30;54931;52.098;21.006;2024-02-04T04:47:24;5.18;76.67
68128;SHT30;54931;52.098;21.006;2024-02-04T04:49:52;4.81;78.71
68128;SHT30;54931;52.098;21.006;2024-02-04T04:52:19;4.61;79.99
68128;SHT30;54931;52.098;21.006;2024-02-04T04:54:47;4.51;80.71
68128;SHT30;54931;52.098;21.006;2024-02-04T04:57:16;4.50;81.26
68128;SHT30;54931;52.098;21.006;2024-02-04T04:59:43;4.48;81.58
68128;SHT30;54931;52.098;21.006;2024-02-04T05:02:11;4.51;81.99
68128;SHT30;54931;52.098;21.006;2024-02-04T05:04:38;4.61;81.71
68128;SHT30;54931;52.098;21.006;2024-02-04T05:07:11;4.64;81.73
68128;SHT30;54931;52.098;21.006;2024-02-04T05:09:39;4.76;81.22
68128;SHT30;54931;52.098;21.006;2024-02-04T05:12:08;4.89;80.83
68128;SHT30;54931;52.098;21.006;2024-02-04T05:14:37;4.97;80.69
68128;SHT30;54931;52.098;21.006;2024-02-04T05:17:04;5.05;80.41
68128;SHT30;54931;52.098;21.006;2024-02-04T05:19:33;5.08;80.36
68128;SHT30;54931;52.098;21.006;2024-02-04T05:22:01;5.14;80.36
68128;SHT30;54931;52.098;21.006;2024-02-04T05:24:29;5.16;80.54
68128;SHT30;54931;52.098;21.006;2024-02-04T05:26:57;5.19;80.48
68128;SHT30;54931;52.098;21.006;2024-02-04T05:29:24;5.25;79.75
68128;SHT30;54931;52.098;21.006;2024-02-04T05:31:52;5.29;78.63
68128;SHT30;54931;52.098;21.006;2024-02-04T05:34:19;5.29;78.21
68128;SHT30;54931;52.098;21.006;2024-02-04T05:36:47;5.26;78.15
68128;SHT30;54931;52.098;21.006;2024-02-04T05:39:14;5.23;78.20
68128;SHT30;54931;52.098;21.006;2024-02-04T05:41:43;5.19;78.28
68128;SHT30;54931;52.098;21.006;2024-02-04T05:44:11;5.17;78.44
68128;SHT30;54931;52.098;21.006;2024-02-04T05:46:38;5.10;78.62
68128;SHT30;54931;52.098;21.006;2024-02-04T05:49:06;5.07;78.81
68128;SHT30;54931;52.098;21.006;2024-02-04T05:51:40;5.03;78.96
68128;SHT30;54931;52.098;21.006;2024-02-04T05:54:08;4.97;79.05
68128;SHT30;54931;52.098;21.006;2024-02-04T05:56:36;4.94;78.96
68128;SHT30;54931;52.098;21.006;2024-02-04T05:59:03;4.91;78.91
68128;SHT30;54931;52.098;21.006;2024-02-04T06:01:32;4.90;78.76
68128;SHT30;54931;52.098;21.006;2024-02-04T06:04:00;4.90;78.44
68128;SHT30;54931;52.098;21.006;2024-02-04T06:06:27;4.90;78.46
68128;SHT30;54931;52.098;21.006;2024-02-04T06:08:55;4.88;78.47
68128;SHT30;54931;52.098;21.006;2024-02-04T06:11:22;4.85;78.60
68128;SHT30;54931;52.098;21.006;2024-02-04T06:13:50;4.83;78.72
68128;SHT30;54931;52.098;21.006;2024-02-04T06:16:17;4.79;78.91
68128;SHT30;54931;52.098;21.006;2024-02-04T06:18:45;4.81;79.01
68128;SHT30;54931;52.098;21.006;2024-02-04T06:21:13;4.80;78.91
68128;SHT30;54931;52.098;21.006;2024-02-04T06:23:40;4.82;78.82
68128;SHT30;54931;52.098;21.006;2024-02-04T06:26:08;4.84;78.68
68128;SHT30;54931;52.098;21.006;2024-02-04T06:28:35;4.86;78.60
68128;SHT30;54931;52.098;21.006;2024-02-04T06:31:03;4.87;78.70
68128;SHT30;54931;52.098;21.006;2024-02-04T06:33:31;4.87;78.79
68128;SHT30;54931;52.098;21.006;2024-02-04T06:35:58;4.87;78.87
68128;SHT30;54931;52.098;21.006;2024-02-04T06:38:26;4.89;78.75
68128;SHT30;54931;52.098;21.006;2024-02-04T06:40:53;4.90;78.73
68128;SHT30;54931;52.098;21.006;2024-02-04T06:43:21;4.93;78.53
68128;SHT30;54931;52.098;21.006;2024-02-04T06:45:48;4.97;78.11
68128;SHT30;54931;52.098;21.006;2024-02-04T06:48:18;5.02;77.82
68128;SHT30;54931;52.098;21.006;2024-02-04T06:50:47;5.07;77.64
68128;SHT30;54931;52.098;21.006;2024-02-04T06:53:17;5.09;77.47
68128;SHT30;54931;52.098;21.006;2024-02-04T06:55:44;5.11;77.25
68128;SHT30;54931;52.098;21.006;2024-02-04T06:58:12;5.14;76.87
68128;SHT30;54931;52.098;21.006;2024-02-04T07:00:40;5.19;76.45
68128;SHT30;54931;52.098;21.006;2024-02-04T07:03:07;5.21;76.29
68128;SHT30;54931;52.098;21.006;2024-02-04T07:05:37;5.24;75.96
68128;SHT30;54931;52.098;21.006;2024-02-04T07:08:04;5.27;75.64
68128;SHT30;54931;52.098;21.006;2024-02-04T07:10:33;5.33;75.12
68128;SHT30;54931;52.098;21.006;2024-02-04T07:13:00;5.38;74.87
68128;SHT30;54931;52.098;21.006;2024-02-04T07:15:28;5.42;74.71
68128;SHT30;54931;52.098;21.006;2024-02-04T07:17:56;5.46;74.64
68128;SHT30;54931;52.098;21.006;2024-02-04T07:20:23;5.49;74.38
68128;SHT30;54931;52.098;21.006;2024-02-04T07:22:51;5.55;73.96
68128;SHT30;54931;52.098;21.006;2024-02-04T07:25:18;5.59;74.26
68128;SHT30;54931;52.098;21.006;2024-02-04T07:27:47;5.57;74.06
68128;SHT30;54931;52.098;21.006;2024-02-04T07:30:15;5.62;73.93
68128;SHT30;54931;52.098;21.006;2024-02-04T07:32:44;5.64;73.84
68128;SHT30;54931;52.098;21.006;2024-02-04T07:35:12;5.65;73.76
68128;SHT30;54931;52.098;21.006;2024-02-04T07:37:39;5.70;73.85
68128;SHT30;54931;52.098;21.006;2024-02-04T07:40:07;5.72;73.90
68128;SHT30;54931;52.098;21.006;2024-02-04T07:42:35;5.75;73.62
68128;SHT30;54931;52.098;21.006;2024-02-04T07:45:03;5.79;73.87
68128;SHT30;54931;52.098;21.006;2024-02-04T07:47:36;5.82;73.59
68128;SHT30;54931;52.098;21.006;2024-02-04T07:50:04;5.84;72.93
68128;SHT30;54931;52.098;21.006;2024-02-04T07:52:32;5.97;72.64
68128;SHT30;54931;52.098;21.006;2024-02-04T07:55:00;6.18;72.31
68128;SHT30;54931;52.098;21.006;2024-02-04T07:57:28;6.31;71.67
68128;SHT30;54931;52.098;21.006;2024-02-04T07:59:56;6.40;71.35
68128;SHT30;54931;52.098;21.006;2024-02-04T08:02:23;6.49;71.18
68128;SHT30;54931;52.098;21.006;2024-02-04T08:04:51;6.47;71.30
68128;SHT30;54931;52.098;21.006;2024-02-04T08:07:18;6.39;71.27
68128;SHT30;54931;52.098;21.006;2024-02-04T08:09:47;6.34;71.29
68128;SHT30;54931;52.098;21.006;2024-02-04T08:12:18;6.25;71.03
68128;SHT30;54931;52.098;21.006;2024-02-04T08:14:46;6.25;71.19
68128;SHT30;54931;52.098;21.006;2024-02-04T08:17:13;6.21;71.38
68128;SHT30;54931;52.098;21.006;2024-02-04T08:19:41;6.19;71.50
68128;SHT30;54931;52.098;21.006;2024-02-04T08:22:09;6.14;71.38
68128;SHT30;54931;52.098;21.006;2024-02-04T08:24:37;6.14;71.35
68128;SHT30;54931;52.098;21.006;2024-02-04T08:27:04;6.13;71.44
68128;SHT30;54931;52.098;21.006;2024-02-04T08:29:33;6.12;71.41
68128;SHT30;54931;52.098;21.006;2024-02-04T08:32:00;6.13;71.51
68128;SHT30;54931;52.098;21.006;2024-02-04T08:34:28;6.13;71.13
68128;SHT30;54931;52.098;21.006;2024-02-04T08:36:56;6.14;70.99
68128;SHT30;54931;52.098;21.006;2024-02-04T08:39:23;6.14;70.60
68128;SHT30;54931;52.098;21.006;2024-02-04T08:41:52;6.14;70.17
68128;SHT30;54931;52.098;21.006;2024-02-04T08:44:20;6.17;70.39
68128;SHT30;54931;52.098;21.006;2024-02-04T08:46:48;6.17;70.59
68128;SHT30;54931;52.098;21.006;2024-02-04T08:49:16;6.19;70.44
68128;SHT30;54931;52.098;21.006;2024-02-04T08:51:43;6.16;70.01
68128;SHT30;54931;52.098;21.006;2024-02-04T08:54:11;6.21;70.14
68128;SHT30;54931;52.098;21.006;2024-02-04T08:56:39;6.18;70.08
68128;SHT30;54931;52.098;21.006;2024-02-04T08:59:07;6.21;69.93
68128;SHT30;54931;52.098;21.006;2024-02-04T09:01:35;6.22;69.56
68128;SHT30;54931;52.098;21.006;2024-02-04T09:04:03;6.27;69.35
68128;SHT30;54931;52.098;21.006;2024-02-04T09:06:30;6.27;69.30
68128;SHT30;54931;52.098;21.006;2024-02-04T09:08:59;6.26;68.85
68128;SHT30;54931;52.098;21.006;2024-02-04T09:11:26;6.24;68.92
68128;SHT30;54931;52.098;21.006;2024-02-04T09:13:54;6.26;69.06
68128;SHT30;54931;52.098;21.006;2024-02-04T09:16:22;6.30;69.16
68128;SHT30;54931;52.098;21.006;2024-02-04T09:18:49;6.27;68.80
68128;SHT30;54931;52.098;21.006;2024-02-04T09:21:16;6.30;68.57
68128;SHT30;54931;52.098;21.006;2024-02-04T09:23:44;6.35;68.85
68128;SHT30;54931;52.098;21.006;2024-02-04T09:26:13;6.35;68.74
68128;SHT30;54931;52.098;21.006;2024-02-04T09:28:41;6.38;68.67
68128;SHT30;54931;52.098;21.006;2024-02-04T09:31:09;6.36;68.19
68128;SHT30;54931;52.098;21.006;2024-02-04T09:33:37;6.42;68.35
68128;SHT30;54931;52.098;21.006;2024-02-04T09:36:05;6.45;68.17
68128;SHT30;54931;52.098;21.006;2024-02-04T09:38:33;6.49;68.16
68128;SHT30;54931;52.098;21.006;2024-02-04T09:41:01;6.52;67.95
68128;SHT30;54931;52.098;21.006;2024-02-04T09:43:32;6.60;67.88
68128;SHT30;54931;52.098;21.006;2024-02-04T09:46:02;6.64;67.64
68128;SHT30;54931;52.098;21.006;2024-02-04T09:48:32;6.67;67.57
68128;SHT30;54931;52.098;21.006;2024-02-04T09:51:00;6.74;67.74
68128;SHT30;54931;52.098;21.006;2024-02-04T09:53:33;6.75;67.28
68128;SHT30;54931;52.098;21.006;2024-02-04T09:56:03;6.76;67.35
68128;SHT30;54931;52.098;21.006;2024-02-04T09:58:33;6.80;67.68
68128;SHT30;54931;52.098;21.006;2024-02-04T10:01:01;6.78;67.34
68128;SHT30;54931;52.098;21.006;2024-02-04T10:03:31;6.78;67.52
68128;SHT30;54931;52.098;21.006;2024-02-04T10:05:58;6.78;67.30
68128;SHT30;54931;52.098;21.006;2024-02-04T10:08:27;6.77;67.13
68128;SHT30;54931;52.098;21.006;2024-02-04T10:10:55;6.74;67.19
68128;SHT30;54931;52.098;21.006;2024-02-04T10:13:25;6.72;67.29
68128;SHT30;54931;52.098;21.006;2024-02-04T10:15:53;6.74;67.44
68128;SHT30;54931;52.098;21.006;2024-02-04T10:18:21;6.73;67.69
68128;SHT30;54931;52.098;21.006;2024-02-04T10:20:49;6.72;67.66
68128;SHT30;54931;52.098;21.006;2024-02-04T10:23:17;6.64;67.52
68128;SHT30;54931;52.098;21.006;2024-02-04T10:25:44;6.69;67.90
68128;SHT30;54931;52.098;21.006;2024-02-04T10:28:13;6.64;67.87
68128;SHT30;54931;52.098;21.006;2024-02-04T10:30:44;6.66;67.71
68128;SHT30;54931;52.098;21.006;2024-02-04T10:33:14;6.68;67.84
68128;SHT30;54931;52.098;21.006;2024-02-04T10:35:43;6.73;68.08
68128;SHT30;54931;52.098;21.006;2024-02-04T10:38:10;6.73;68.00
68128;SHT30;54931;52.098;21.006;2024-02-04T10:40:38;6.73;67.93
68128;SHT30;54931;52.098;21.006;2024-02-04T10:43:06;6.74;67.83
68128;SHT30;54931;52.098;21.006;2024-02-04T10:45:35;6.79;67.58
68128;SHT30;54931;52.098;21.006;2024-02-04T10:48:10;6.83;67.58
68128;SHT30;54931;52.098;21.006;2024-02-04T10:50:42;6.85;67.32
68128;SHT30;54931;52.098;21.006;2024-02-04T10:53:16;6.89;67.48
68128;SHT30;54931;52.098;21.006;2024-02-04T10:55:48;6.82;68.05
68128;SHT30;54931;52.098;21.006;2024-02-04T10:58:22;6.75;68.78
68128;SHT30;54931;52.098;21.006;2024-02-04T11:00:52;6.71;68.95
68128;SHT30;54931;52.098;21.006;2024-02-04T11:03:20;6.68;68.89
68128;SHT30;54931;52.098;21.006;2024-02-04T11:05:49;6.67;69.15
68128;SHT30;54931;52.098;21.006;2024-02-04T11:08:18;6.65;69.62
68128;SHT30;54931;52.098;21.006;2024-02-04T11:10:46;6.64;70.00
68128;SHT30;54931;52.098;21.006;2024-02-04T11:13:14;6.66;70.28
68128;SHT30;54931;52.098;21.006;2024-02-04T11:15:44;6.64;70.45
68128;SHT30;54931;52.098;21.006;2024-02-04T11:21:01;6.56;71.16
68128;SHT30;54931;52.098;21.006;2024-02-04T11:23:41;6.53;71.53
68128;SHT30;54931;52.098;21.006;2024-02-04T11:26:43;6.50;71.50
68128;SHT30;54931;52.098;21.006;2024-02-04T11:29:11;6.49;71.85
68128;SHT30;54931;52.098;21.006;2024-02-04T11:31:40;6.48;72.46
68128;SHT30;54931;52.098;21.006;2024-02-04T11:34:08;6.45;72.66
68128;SHT30;54931;52.098;21.006;2024-02-04T11:36:39;6.41;72.69
68128;SHT30;54931;52.098;21.006;2024-02-04T11:39:11;6.38;73.01
68128;SHT30;54931;52.098;21.006;2024-02-04T11:41:45;6.34;73.83
68128;SHT30;54931;52.098;21.006;2024-02-04T11:44:24;6.28;74.26
68128;SHT30;54931;52.098;21.006;2024-02-04T11:46:54;6.27;75.03
68128;SHT30;54931;52.098;21.006;2024-02-04T11:49:24;6.22;75.43
68128;SHT30;54931;52.098;21.006;2024-02-04T11:51:54;6.23;75.85
68128;SHT30;54931;52.098;21.006;2024-02-04T11:54:23;6.22;76.37
68128;SHT30;54931;52.098;21.006;2024-02-04T11:56:55;6.21;76.72
68128;SHT30;54931;52.098;21.006;2024-02-04T11:59:26;6.19;76.72
68128;SHT30;54931;52.098;21.006;2024-02-04T12:01:57;6.20;76.25
68128;SHT30;54931;52.098;21.006;2024-02-04T12:04:35;6.20;76.65
68128;SHT30;54931;52.098;21.006;2024-02-04T12:07:08;6.22;76.58
68128;SHT30;54931;52.098;21.006;2024-02-04T12:09:37;6.23;75.99
68128;SHT30;54931;52.098;21.006;2024-02-04T12:12:06;6.27;75.74
68128;SHT30;54931;52.098;21.006;2024-02-04T12:14:37;6.28;75.45
68128;SHT30;54931;52.098;21.006;2024-02-04T12:17:09;6.32;75.69
68128;SHT30;54931;52.098;21.006;2024-02-04T12:19:39;6.36;75.74
68128;SHT30;54931;52.098;21.006;2024-02-04T12:22:08;6.36;75.66
68128;SHT30;54931;52.098;21.006;2024-02-04T12:24:37;6.40;75.64
68128;SHT30;54931;52.098;21.006;2024-02-04T12:27:07;6.40;75.49
68128;SHT30;54931;52.098;21.006;2024-02-04T12:29:36;6.42;75.64
68128;SHT30;54931;52.098;21.006;2024-02-04T12:32:06;6.42;75.78
68128;SHT30;54931;52.098;21.006;2024-02-04T12:34:36;6.44;75.79
68128;SHT30;54931;52.098;21.006;2024-02-04T12:37:08;6.47;76.01
68128;SHT30;54931;52.098;21.006;2024-02-04T12:39:38;6.53;76.00
68128;SHT30;54931;52.098;21.006;2024-02-04T12:42:06;6.56;75.75
68128;SHT30;54931;52.098;21.006;2024-02-04T12:44:37;6.53;75.33
68128;SHT30;54931;52.098;21.006;2024-02-04T12:47:07;6.57;75.47
68128;SHT30;54931;52.098;21.006;2024-02-04T12:49:39;6.55;75.67
68128;SHT30;54931;52.098;21.006;2024-02-04T12:52:08;6.54;75.49
68128;SHT30;54931;52.098;21.006;2024-02-04T12:54:43;6.55;75.26
68128;SHT30;54931;52.098;21.006;2024-02-04T12:57:22;6.57;75.11
68128;SHT30;54931;52.098;21.006;2024-02-04T12:59:52;6.56;75.24
68128;SHT30;54931;52.098;21.006;2024-02-04T13:02:21;6.56;75.57
68128;SHT30;54931;52.098;21.006;2024-02-04T13:04:49;6.52;75.81
68128;SHT30;54931;52.098;21.006;2024-02-04T13:07:19;6.49;75.93
68128;SHT30;54931;52.098;21.006;2024-02-04T13:09:58;6.45;76.33
68128;SHT30;54931;52.098;21.006;2024-02-04T13:12:28;6.41;76.91
68128;SHT30;54931;52.098;21.006;2024-02-04T13:14:56;6.37;77.08
68128;SHT30;54931;52.098;21.006;2024-02-04T13:17:24;6.31;77.42
68128;SHT30;54931;52.098;21.006;2024-02-04T13:19:54;6.26;77.67
68128;SHT30;54931;52.098;21.006;2024-02-04T13:22:22;6.22;78.04
68128;SHT30;54931;52.098;21.006;2024-02-04T13:24:50;6.16;77.82
68128;SHT30;54931;52.098;21.006;2024-02-04T13:27:18;6.10;78.27
68128;SHT30;54931;52.098;21.006;2024-02-04T13:29:49;6.04;78.76
68128;SHT30;54931;52.098;21.006;2024-02-04T13:32:17;6.01;79.13
68128;SHT30;54931;52.098;21.006;2024-02-04T13:34:44;5.95;79.18
68128;SHT30;54931;52.098;21.006;2024-02-04T13:37:12;5.93;79.35
68128;SHT30;54931;52.098;21.006;2024-02-04T13:39:40;5.91;79.58
68128;SHT30;54931;52.098;21.006;2024-02-04T13:42:07;5.87;79.84
68128;SHT30;54931;52.098;21.006;2024-02-04T13:44:36;5.86;80.01
68128;SHT30;54931;52.098;21.006;2024-02-04T13:47:04;5.81;80.26
68128;SHT30;54931;52.098;21.006;2024-02-04T13:49:34;5.81;79.96
68128;SHT30;54931;52.098;21.006;2024-02-04T13:52:03;5.82;79.88
68128;SHT30;54931;52.098;21.006;2024-02-04T13:54:33;5.82;79.81
68128;SHT30;54931;52.098;21.006;2024-02-04T13:57:02;5.83;79.47
68128;SHT30;54931;52.098;21.006;2024-02-04T13:59:32;5.83;79.54
68128;SHT30;54931;52.098;21.006;2024-02-04T14:02:02;5.82;79.45
68128;SHT30;54931;52.098;21.006;2024-02-04T14:04:31;5.84;79.39
68128;SHT30;54931;52.098;21.006;2024-02-04T14:07:00;5.83;78.91
68128;SHT30;54931;52.098;21.006;2024-02-04T14:09:29;5.88;78.68
68128;SHT30;54931;52.098;21.006;2024-02-04T14:12:02;5.89;78.23
68128;SHT30;54931;52.098;21.006;2024-02-04T14:14:35;5.93;78.29
68128;SHT30;54931;52.098;21.006;2024-02-04T14:17:03;5.92;77.81
68128;SHT30;54931;52.098;21.006;2024-02-04T14:19:32;5.96;77.47
68128;SHT30;54931;52.098;21.006;2024-02-04T14:22:02;5.99;77.03
68128;SHT30;54931;52.098;21.006;2024-02-04T14:24:31;6.01;77.20
68128;SHT30;54931;52.098;21.006;2024-02-04T14:27:00;6.03;76.03
68128;SHT30;54931;52.098;21.006;2024-02-04T14:29:29;6.09;75.76
68128;SHT30;54931;52.098;21.006;2024-02-04T14:31:58;6.12;75.26
68128;SHT30;54931;52.098;21.006;2024-02-04T14:34:26;6.20;73.75
68128;SHT30;54931;52.098;21.006;2024-02-04T14:36:56;6.30;73.58
68128;SHT30;54931;52.098;21.006;2024-02-04T14:39:25;6.34;73.23
68128;SHT30;54931;52.098;21.006;2024-02-04T14:41:54;6.38;73.00
68128;SHT30;54931;52.098;21.006;2024-02-04T14:44:25;6.42;72.41
68128;SHT30;54931;52.098;21.006;2024-02-04T14:46:53;6.48;71.92
68128;SHT30;54931;52.098;21.006;2024-02-04T14:49:22;6.51;71.89
68128;SHT30;54931;52.098;21.006;2024-02-04T14:51:51;6.53;71.29
68128;SHT30;54931;52.098;21.006;2024-02-04T14:54:20;6.58;71.25
68128;SHT30;54931;52.098;21.006;2024-02-04T14:56:48;6.61;70.83
68128;SHT30;54931;52.098;21.006;2024-02-04T14:59:18;6.64;70.61
68128;SHT30;54931;52.098;21.006;2024-02-04T15:01:46;6.68;70.29
68128;SHT30;54931;52.098;21.006;2024-02-04T15:04:15;6.69;70.77
68128;SHT30;54931;52.098;21.006;2024-02-04T15:06:43;6.68;70.70
68128;SHT30;54931;52.098;21.006;2024-02-04T15:09:11;6.68;70.84
68128;SHT30;54931;52.098;21.006;2024-02-04T15:11:39;6.68;70.71
68128;SHT30;54931;52.098;21.006;2024-02-04T15:14:09;6.70;70.32
68128;SHT30;54931;52.098;21.006;2024-02-04T15:16:37;6.74;70.12
68128;SHT30;54931;52.098;21.006;2024-02-04T15:19:06;6.76;70.11
68128;SHT30;54931;52.098;21.006;2024-02-04T15:21:34;6.77;70.24
68128;SHT30;54931;52.098;21.006;2024-02-04T15:24:03;6.77;70.45
68128;SHT30;54931;52.098;21.006;2024-02-04T15:26:32;6.76;70.32
68128;SHT30;54931;52.098;21.006;2024-02-04T15:29:03;6.78;69.86
68128;SHT30;54931;52.098;21.006;2024-02-04T15:31:32;6.85;69.52
68128;SHT30;54931;52.098;21.006;2024-02-04T15:34:02;6.87;69.58
68128;SHT30;54931;52.098;21.006;2024-02-04T15:36:34;6.87;69.47
68128;SHT30;54931;52.098;21.006;2024-02-04T15:39:04;6.91;69.40
68128;SHT30;54931;52.098;21.006;2024-02-04T15:41:32;6.92;69.31
68128;SHT30;54931;52.098;21.006;2024-02-04T15:44:00;6.94;68.93